createdAt,value
2019-06-07T00:00:30.751Z,96006.95
2019-06-07T00:02:40.248Z,96005.31
2019-06-07T00:05:10.000Z,96008.74
2019-06-07T00:07:39.239Z,96010.88
2019-06-07T00:10:09.431Z,96013.33
2019-06-07T00:12:38.163Z,96013.17
2019-06-07T00:15:12.937Z,96005.48
2019-06-07T00:17:37.533Z,96006.30
2019-06-07T00:20:13.873Z,96018.77
2019-06-07T00:22:39.694Z,96017.77
2019-06-07T00:25:12.414Z,96017.53
2019-06-07T00:27:39.574Z,96020.81
2019-06-07T00:30:33.266Z,96016.55
2019-06-07T00:32:40.475Z,96022.52
2019-06-07T00:35:09.332Z,96021.70
2019-06-07T00:37:38.025Z,96027.63
2019-06-07T00:40:16.245Z,96027.63
2019-06-07T00:42:37.520Z,96031.16
2019-06-07T00:45:07.072Z,96039.67
2019-06-07T00:47:35.669Z,96037.79
2019-06-07T00:50:05.024Z,96032.03
2019-06-07T00:55:07.592Z,96034.91
2019-06-07T00:57:36.045Z,96045.73
2019-06-07T01:00:07.880Z,96055.16
2019-06-07T01:02:36.482Z,96053.85
2019-06-07T01:05:07.019Z,96053.85
2019-06-07T01:07:35.628Z,96051.39
2019-06-07T01:10:06.876Z,96039.34
2019-06-07T01:12:35.381Z,96055.16
2019-06-07T01:15:05.267Z,96057.56
2019-06-07T01:17:43.861Z,96056.22
2019-06-07T01:20:09.380Z,96055.80
2019-06-07T01:22:37.886Z,96057.78
2019-06-07T01:25:09.173Z,96059.09
2019-06-07T01:27:37.728Z,96056.62
2019-06-07T01:30:10.963Z,96054.25
2019-06-07T01:32:39.556Z,96054.01
2019-06-07T01:35:08.616Z,96058.51
2019-06-07T01:37:37.115Z,96055.56
2019-06-07T01:40:08.600Z,96047.77
2019-06-07T01:42:37.184Z,96047.44
2019-06-07T01:45:09.944Z,96062.28
2019-06-07T01:47:38.577Z,96056.80
2019-06-07T01:50:09.197Z,96038.76
2019-06-07T01:52:37.795Z,96045.23
2019-06-07T01:55:07.158Z,96043.11
2019-06-07T01:57:47.576Z,96039.16
2019-06-07T02:00:07.057Z,96043.08
2019-06-07T02:02:35.650Z,96047.53
2019-06-07T02:05:08.141Z,96031.67
2019-06-07T02:07:36.898Z,96035.99
2019-06-07T02:10:09.139Z,96038.89
2019-06-07T02:12:43.175Z,96029.06
2019-06-07T02:15:09.327Z,96029.55
2019-06-07T02:17:38.319Z,96030.89
2019-06-07T02:20:07.651Z,96028.48
2019-06-07T02:22:36.244Z,96020.70
2019-06-07T02:25:35.085Z,96018.05
2019-06-07T02:27:37.037Z,96019.20
2019-06-07T02:30:35.381Z,96016.22
2019-06-07T02:32:37.834Z,96010.31
2019-06-07T02:35:06.955Z,95993.92
2019-06-07T02:37:36.978Z,96011.31
2019-06-07T02:40:07.603Z,95999.09
2019-06-07T02:42:42.214Z,95974.09
2019-06-07T02:45:10.719Z,95990.97
2019-06-07T02:47:40.010Z,95988.50
2019-06-07T02:50:11.540Z,95981.72
2019-06-07T02:52:41.628Z,95984.43
2019-06-07T02:55:11.791Z,95971.44
2019-06-07T02:57:42.110Z,95965.04
2019-06-07T03:00:47.487Z,95970.27
2019-06-07T03:02:43.504Z,95973.84
2019-06-07T03:05:12.665Z,95974.47
2019-06-07T03:07:44.999Z,95963.38
2019-06-07T03:10:13.363Z,95960.63
2019-06-07T03:12:44.544Z,95958.16
2019-06-07T03:15:32.185Z,95962.27
2019-06-07T03:17:46.736Z,95965.02
2019-06-07T03:20:17.050Z,95971.06
2019-06-07T03:22:48.270Z,95974.09
2019-06-07T03:28:08.295Z,95974.09
2019-06-07T03:30:52.204Z,95972.41
2019-06-07T03:33:07.176Z,95965.59
2019-06-07T03:35:37.441Z,95967.48
2019-06-07T03:38:05.919Z,95968.06
2019-06-07T03:40:39.623Z,95964.83
2019-06-07T03:43:04.661Z,95953.45
2019-06-07T03:45:36.016Z,95957.97
2019-06-07T03:48:03.483Z,95955.26
2019-06-07T03:50:35.930Z,95955.50
2019-06-07T03:53:02.299Z,95949.17
2019-06-07T03:55:34.883Z,95942.94
2019-06-07T03:58:30.640Z,95945.94
2019-06-07T04:00:34.101Z,95945.44
2019-06-07T04:03:01.619Z,95939.45
2019-06-07T04:05:32.911Z,95935.35
2019-06-07T04:08:00.373Z,95933.98
2019-06-07T04:10:52.040Z,95908.91
2019-06-07T04:12:59.168Z,95926.31
2019-06-07T04:15:28.102Z,95914.13
2019-06-07T04:18:01.788Z,95911.42
2019-06-07T04:20:29.195Z,95911.42
2019-06-07T04:22:57.222Z,95904.39
2019-06-07T04:25:26.035Z,95906.83
2019-06-07T04:27:54.522Z,95904.45
2019-06-07T04:30:39.485Z,95900.67
2019-06-07T04:33:08.144Z,95895.00
2019-06-07T04:35:40.030Z,95884.47
2019-06-07T04:38:13.400Z,95889.38
2019-06-07T04:40:43.118Z,95884.26
2019-06-07T04:43:12.348Z,95887.28
2019-06-07T04:45:50.343Z,95879.16
2019-06-07T04:48:11.584Z,95886.17
2019-06-07T04:50:43.645Z,95877.48
2019-06-07T04:53:10.510Z,95880.44
2019-06-07T04:55:41.620Z,95863.25
2019-06-07T04:58:09.231Z,95869.28
2019-06-07T05:01:01.470Z,95867.14
2019-06-07T05:03:08.171Z,95865.50
2019-06-07T05:05:40.880Z,95866.03
2019-06-07T05:08:07.864Z,95857.02
2019-06-07T05:10:38.775Z,95866.03
2019-06-07T05:13:07.379Z,95868.17
2019-06-07T05:15:38.986Z,95851.59
2019-06-07T05:18:06.159Z,95851.56
2019-06-07T05:20:36.113Z,95841.55
2019-06-07T05:23:04.865Z,95850.78
2019-06-07T05:25:35.425Z,95838.06
2019-06-07T05:28:03.775Z,95844.86
2019-06-07T05:33:09.149Z,95844.86
2019-06-07T05:35:41.365Z,95842.98
2019-06-07T05:38:08.542Z,95839.45
2019-06-07T05:40:42.952Z,95835.67
2019-06-07T05:43:27.286Z,95842.41
2019-06-07T05:45:55.799Z,95830.96
2019-06-07T05:48:24.397Z,95840.56
2019-06-07T05:50:56.793Z,95846.34
2019-06-07T05:53:23.171Z,95856.17
2019-06-07T05:55:51.727Z,95845.38
2019-06-07T05:58:20.244Z,95847.83
2019-06-07T06:00:48.894Z,95843.48
2019-06-07T06:03:17.614Z,95847.02
2019-06-07T06:05:54.579Z,95845.38
2019-06-07T06:08:18.012Z,95842.91
2019-06-07T06:10:48.632Z,95839.14
2019-06-07T06:13:16.718Z,95837.00
2019-06-07T06:15:58.519Z,95836.67
2019-06-07T06:18:15.443Z,95837.00
2019-06-07T06:23:14.268Z,95835.96
2019-06-07T06:25:52.541Z,95834.64
2019-06-07T06:28:15.756Z,95825.66
2019-06-07T06:30:47.286Z,95826.16
2019-06-07T06:33:30.720Z,95808.30
2019-06-07T06:35:47.485Z,95814.00
2019-06-07T06:38:14.391Z,95811.83
2019-06-07T06:40:46.295Z,95809.47
2019-06-07T06:43:13.155Z,95780.78
2019-06-07T06:45:42.928Z,95795.41
2019-06-07T06:48:12.265Z,95789.42
2019-06-07T06:50:41.123Z,95793.02
2019-06-07T06:53:09.745Z,95786.77
2019-06-07T06:55:39.081Z,95767.58
2019-06-07T06:58:07.641Z,95763.81
2019-06-07T07:00:53.541Z,95752.77
2019-06-07T07:03:56.528Z,95755.81
2019-06-07T07:05:50.840Z,95764.25
2019-06-07T07:08:17.984Z,95745.36
2019-06-07T07:10:51.134Z,95744.80
2019-06-07T07:13:17.359Z,95738.55
2019-06-07T07:15:50.126Z,95744.64
2019-06-07T07:18:16.226Z,95735.32
2019-06-07T07:20:45.876Z,95716.69
2019-06-07T07:23:15.146Z,95730.30
2019-06-07T07:25:50.592Z,95730.47
2019-06-07T07:28:14.154Z,95739.73
2019-06-07T07:30:54.859Z,95727.58
2019-06-07T07:33:20.794Z,95729.66
2019-06-07T07:36:10.879Z,95705.45
2019-06-07T07:38:20.264Z,95742.25
2019-06-07T07:41:01.863Z,95721.19
2019-06-07T07:43:19.050Z,95722.25
2019-06-07T07:45:55.012Z,95728.13
2019-06-07T07:48:18.391Z,95728.83
2019-06-07T07:50:49.737Z,95723.80
2019-06-07T07:53:17.711Z,95734.28
2019-06-07T07:55:51.559Z,95736.11
2019-06-07T07:58:16.810Z,95766.07
2019-06-07T08:01:00.358Z,95752.02
2019-06-07T08:03:15.622Z,95746.52
2019-06-07T08:05:45.714Z,95764.95
2019-06-07T08:08:15.005Z,95728.41
2019-06-07T08:10:43.518Z,95757.83
2019-06-07T08:13:24.537Z,95749.95
2019-06-07T08:15:42.418Z,95751.98
2019-06-07T08:18:10.970Z,95751.98
2019-06-07T08:20:39.574Z,95745.55
2019-06-07T08:23:08.269Z,95736.59
2019-06-07T08:25:36.838Z,95743.95
2019-06-07T08:28:11.387Z,95745.23
2019-06-07T08:30:52.349Z,95731.28
2019-06-07T08:33:25.460Z,95736.83
2019-06-07T08:36:05.909Z,95746.39
2019-06-07T08:38:33.964Z,95737.93
2019-06-07T08:40:41.124Z,95717.87
2019-06-07T08:43:19.500Z,95717.87
2019-06-07T08:45:40.072Z,95737.62
2019-06-07T08:48:26.578Z,95739.24
2019-06-07T08:50:39.014Z,95726.61
2019-06-07T08:53:12.119Z,95757.55
2019-06-07T08:55:37.926Z,95724.06
2019-06-07T08:58:08.758Z,95757.56
2019-06-07T09:00:46.903Z,95736.77
2019-06-07T09:03:07.722Z,95738.22
2019-06-07T09:05:36.329Z,95748.27
2019-06-07T09:08:28.594Z,95746.02
2019-06-07T09:10:35.571Z,95719.74
2019-06-07T09:13:10.969Z,95708.25
2019-06-07T09:15:34.686Z,95737.72
2019-06-07T09:18:37.799Z,95724.41
2019-06-07T09:20:48.476Z,95751.83
2019-06-07T09:23:17.980Z,95757.46
2019-06-07T09:25:57.248Z,95760.88
2019-06-07T09:28:20.266Z,95765.55
2019-06-07T09:30:47.636Z,95779.31
2019-06-07T09:33:16.179Z,95766.55
2019-06-07T09:35:44.885Z,95779.15
2019-06-07T09:38:24.974Z,95780.27
2019-06-07T09:40:43.807Z,95751.74
2019-06-07T09:43:59.839Z,95796.75
2019-06-07T09:45:43.354Z,95780.04
2019-06-07T09:48:16.019Z,95779.07
2019-06-07T09:50:42.265Z,95778.23
2019-06-07T09:53:21.776Z,95780.50
2019-06-07T09:55:41.360Z,95784.55
2019-06-07T09:58:48.665Z,95776.56
2019-06-07T10:00:42.319Z,95785.80
2019-06-07T10:03:20.188Z,95793.27
2019-06-07T10:05:41.763Z,95799.28
2019-06-07T10:08:54.249Z,95782.32
2019-06-07T10:10:42.912Z,95800.00
2019-06-07T10:13:11.027Z,95779.95
2019-06-07T10:15:39.674Z,95779.14
2019-06-07T10:18:09.236Z,95783.31
2019-06-07T10:20:38.210Z,95767.97
2019-06-07T10:23:09.971Z,95768.09
2019-06-07T10:25:38.829Z,95767.86
2019-06-07T10:28:08.204Z,95776.57
2019-06-07T10:30:37.014Z,95764.86
2019-06-07T10:33:06.886Z,95775.43
2019-06-07T10:35:35.844Z,95773.89
2019-06-07T10:38:04.672Z,95773.80
2019-06-07T10:40:33.346Z,95783.98
2019-06-07T10:43:02.974Z,95760.56
2019-06-07T10:45:31.660Z,95776.26
2019-06-07T10:48:01.401Z,95780.64
2019-06-07T10:50:30.221Z,95789.38
2019-06-07T10:52:58.746Z,95790.45
2019-06-07T10:55:27.259Z,95790.59
2019-06-07T10:57:55.806Z,95788.02
2019-06-07T11:00:25.347Z,95806.56
2019-06-07T11:02:55.292Z,95792.07
2019-06-07T11:05:24.053Z,95796.64
2019-06-07T11:07:52.709Z,95777.00
2019-06-07T11:10:21.987Z,95779.28
2019-06-07T11:12:50.692Z,95764.17
2019-06-07T11:15:19.703Z,95781.27
2019-06-07T11:17:51.949Z,95772.64
2019-06-07T11:20:21.223Z,95766.53
2019-06-07T11:22:59.085Z,95755.58
2019-06-07T11:25:36.260Z,95742.70
2019-06-07T11:28:08.402Z,95792.98
2019-06-07T11:30:42.924Z,95753.16
2019-06-07T11:36:11.143Z,95738.28
2019-06-07T11:39:01.506Z,95747.30
2019-06-07T11:41:36.365Z,95752.38
2019-06-07T11:44:06.783Z,95750.06
2019-06-07T11:46:35.445Z,95742.23
2019-06-07T11:49:06.304Z,95720.47
2019-06-07T11:51:35.023Z,95749.16
2019-06-07T11:54:03.568Z,95735.55
2019-06-07T11:56:32.164Z,95755.63
2019-06-07T11:59:01.287Z,95750.20
2019-06-07T12:01:32.754Z,95734.02
2019-06-07T12:04:01.267Z,95733.56
2019-06-07T12:06:29.823Z,95733.20
2019-06-07T12:08:58.490Z,95730.42
2019-06-07T12:11:27.090Z,95727.05
2019-06-07T12:13:55.656Z,95742.70
2019-06-07T12:16:24.342Z,95725.22
2019-06-07T12:18:52.877Z,95727.66
2019-06-07T12:21:21.375Z,95727.28
2019-06-07T12:23:49.946Z,95726.84
2019-06-07T12:26:18.717Z,95714.84
2019-06-07T12:28:51.104Z,95719.11
2019-06-07T12:31:23.143Z,95697.21
2019-06-07T12:33:54.500Z,95685.92
2019-06-07T12:54:35.917Z,95625.97
2019-06-07T12:57:04.484Z,95661.77
2019-06-07T12:59:32.993Z,95660.27
2019-06-07T13:02:02.558Z,95641.64
2019-06-07T13:04:31.170Z,95647.87
2019-06-07T13:06:59.812Z,95655.48
2019-06-07T13:09:28.325Z,95653.15
2019-06-07T13:11:56.800Z,95646.65
2019-06-07T13:14:25.290Z,95648.34
2019-06-07T13:16:53.814Z,95671.19
2019-06-07T13:19:22.292Z,95645.38
2019-06-07T13:21:50.791Z,95622.45
2019-06-07T13:24:20.815Z,95632.44
2019-06-07T13:26:49.484Z,95628.79
2019-06-07T13:29:18.743Z,95624.25
2019-06-07T13:31:47.369Z,95661.09
2019-06-07T13:34:16.177Z,95644.45
2019-06-07T13:36:44.804Z,95637.83
2019-06-07T13:39:13.460Z,95634.34
2019-06-07T13:41:43.311Z,95656.35
2019-06-07T13:44:11.921Z,95675.63
2019-06-07T13:46:40.417Z,95651.05
2019-06-07T13:49:08.944Z,95662.23
2019-06-07T13:51:37.528Z,95661.48
2019-06-07T13:54:06.116Z,95652.46
2019-06-07T13:56:34.610Z,95658.51
2019-06-07T13:59:03.282Z,95656.26
2019-06-07T14:01:31.803Z,95642.75
2019-06-07T14:04:00.280Z,95659.19
2019-06-07T14:06:30.301Z,95651.73
2019-06-07T14:08:58.890Z,95668.12
2019-06-07T14:11:27.867Z,95670.01
2019-06-07T14:13:56.458Z,95685.73
2019-06-07T14:16:26.177Z,95686.77
2019-06-07T14:18:54.826Z,95686.27
2019-06-07T14:21:24.509Z,95700.63
2019-06-07T14:23:53.123Z,95690.95
2019-06-07T14:26:21.637Z,95685.41
2019-06-07T14:28:50.171Z,95693.63
2019-06-07T14:31:18.673Z,95692.12
2019-06-07T14:33:47.182Z,95698.93
2019-06-07T14:36:15.678Z,95704.55
2019-06-07T14:38:44.268Z,95735.20
2019-06-07T14:41:12.774Z,95702.44
2019-06-07T14:43:41.541Z,95713.83
2019-06-07T14:46:10.331Z,95720.45
2019-06-07T14:48:38.924Z,95715.98
2019-06-07T14:51:07.401Z,95721.82
2019-06-07T14:53:35.901Z,95709.89
2019-06-07T14:56:04.640Z,95730.08
2019-06-07T14:58:38.070Z,95718.18
2019-06-07T15:01:03.353Z,95721.72
2019-06-07T15:03:32.731Z,95714.64
2019-06-07T15:06:01.471Z,95712.33
2019-06-07T15:08:30.669Z,95710.38
2019-06-07T15:10:59.278Z,95717.77
2019-06-07T15:13:29.340Z,95718.18
2019-06-07T15:15:58.005Z,95732.70
2019-06-07T15:18:27.625Z,95711.91
2019-06-07T15:20:56.181Z,95735.27
2019-06-07T15:23:24.678Z,95736.52
2019-06-07T15:25:53.177Z,95728.23
2019-06-07T15:28:21.647Z,95733.13
2019-06-07T15:30:50.201Z,95741.85
2019-06-07T15:33:21.575Z,95735.63
2019-06-07T15:35:50.068Z,95745.73
2019-06-07T15:38:18.591Z,95761.63
2019-06-07T15:40:47.129Z,95762.44
2019-06-07T15:43:15.666Z,95745.95
2019-06-07T15:45:44.780Z,95750.80
2019-06-07T15:48:13.555Z,95769.26
2019-06-07T15:50:42.080Z,95768.31
2019-06-07T15:53:10.610Z,95753.80
2019-06-07T15:55:43.879Z,95753.67
2019-06-07T15:58:09.371Z,95778.94
2019-06-07T16:00:40.553Z,95779.72
2019-06-07T16:03:08.195Z,95781.00
2019-06-07T16:05:36.664Z,95789.66
2019-06-07T16:08:05.297Z,95785.13
2019-06-07T16:10:34.637Z,95776.02
2019-06-07T16:13:03.275Z,95781.45
2019-06-07T16:15:32.963Z,95794.50
2019-06-07T16:18:01.668Z,95795.31
2019-06-07T16:20:30.306Z,95786.84
2019-06-07T16:22:58.814Z,95797.08
2019-06-07T16:25:27.318Z,95811.96
2019-06-07T16:27:55.879Z,95796.53
2019-06-07T16:30:24.958Z,95798.00
2019-06-07T16:32:53.553Z,95806.44
2019-06-07T16:35:22.114Z,95794.97
2019-06-07T16:37:52.339Z,95819.56
2019-06-07T16:40:21.362Z,95815.41
2019-06-07T16:42:49.868Z,95813.99
2019-06-07T16:45:18.934Z,95827.48
2019-06-07T16:47:48.460Z,95830.16
2019-06-07T16:50:17.911Z,95837.16
2019-06-07T16:52:47.029Z,95836.54
2019-06-07T16:55:20.075Z,95831.14
2019-06-07T16:57:50.182Z,95849.05
2019-06-07T17:00:20.263Z,95855.60
2019-06-07T17:02:48.953Z,95842.81
2019-06-07T17:05:17.689Z,95840.53
2019-06-07T17:07:46.868Z,95835.22
2019-06-07T17:10:16.062Z,95850.76
2019-06-07T17:12:45.055Z,95867.17
2019-06-07T17:15:15.643Z,95849.48
2019-06-07T17:17:45.198Z,95871.71
2019-06-07T17:20:14.269Z,95854.52
2019-06-07T17:22:44.033Z,95850.78
2019-06-07T17:25:13.656Z,95861.53
2019-06-07T17:27:42.205Z,95863.66
2019-06-07T17:30:12.055Z,95856.52
2019-06-07T17:32:53.229Z,95869.50
2019-06-07T17:35:11.181Z,95869.33
2019-06-07T17:37:41.639Z,95875.02
2019-06-07T17:40:10.502Z,95875.84
2019-06-07T17:42:38.992Z,95865.13
2019-06-07T17:45:12.132Z,95873.89
2019-06-07T17:47:41.639Z,95876.97
2019-06-07T17:50:10.867Z,95904.52
2019-06-07T17:52:39.389Z,95887.95
2019-06-07T17:55:08.904Z,95898.16
2019-06-07T17:57:37.663Z,95901.90
2019-06-07T18:00:27.651Z,95904.97
2019-06-07T18:02:38.122Z,95901.72
2019-06-07T18:05:07.153Z,95920.38
2019-06-07T18:07:36.087Z,95911.44
2019-06-07T18:10:06.663Z,95914.50
2019-06-07T18:12:35.177Z,95925.06
2019-06-07T18:15:05.048Z,95923.09
2019-06-07T18:17:34.750Z,95939.46
2019-06-07T18:20:05.235Z,95925.85
2019-06-07T18:22:33.730Z,95935.71
2019-06-07T18:25:02.216Z,95951.27
2019-06-07T18:27:30.727Z,95945.45
2019-06-07T18:29:59.246Z,95944.64
2019-06-07T18:32:27.784Z,95957.57
2019-06-07T18:34:56.260Z,95968.73
2019-06-07T18:37:24.839Z,95970.49
2019-06-07T18:39:53.356Z,95967.24
2019-06-07T18:42:21.868Z,95960.11
2019-06-07T18:44:51.027Z,95970.15
2019-06-07T18:47:19.566Z,95968.83
2019-06-07T18:49:49.333Z,95969.15
2019-06-07T18:52:19.697Z,95984.23
2019-06-07T18:54:48.833Z,95989.23
2019-06-07T18:57:17.486Z,95995.70
2019-06-07T18:59:46.072Z,96000.39
2019-06-07T19:02:14.555Z,95993.27
2019-06-07T19:04:43.079Z,96000.20
2019-06-07T19:07:11.644Z,95997.09
2019-06-07T19:09:40.289Z,96008.11
2019-06-07T19:12:08.792Z,96022.15
2019-06-07T19:14:37.585Z,96022.96
2019-06-07T19:17:06.171Z,96025.36
2019-06-07T19:19:34.674Z,96025.86
2019-06-07T19:22:03.265Z,96040.13
2019-06-07T19:24:31.772Z,96027.60
2019-06-07T19:27:00.818Z,96036.36
2019-06-07T19:29:33.443Z,96056.75
2019-06-07T19:31:59.617Z,96041.56
2019-06-07T19:34:28.098Z,96048.86
2019-06-07T19:36:57.738Z,96038.97
2019-06-07T19:39:26.332Z,96050.44
2019-06-07T19:41:55.882Z,96053.23
2019-06-07T19:44:24.433Z,96051.84
2019-06-07T19:46:54.261Z,96063.02
2019-06-07T19:49:22.770Z,96072.90
2019-06-07T19:51:51.283Z,96085.54
2019-06-07T19:54:19.773Z,96093.80
2019-06-07T19:56:48.292Z,96085.64
2019-06-07T19:59:16.788Z,96098.61
2019-06-07T20:01:45.435Z,96139.42
2019-06-07T20:04:16.470Z,96168.52
2019-06-07T20:06:46.558Z,96188.05
2019-06-07T20:09:15.072Z,96201.12
2019-06-07T20:11:43.628Z,96185.17
2019-06-07T20:14:12.215Z,96193.39
2019-06-07T20:16:40.808Z,96197.63
2019-06-07T20:19:09.450Z,96208.31
2019-06-07T20:21:37.971Z,96221.54
2019-06-07T20:24:24.757Z,96242.94
2019-06-07T20:26:36.820Z,96242.82
2019-06-07T20:29:24.872Z,96268.53
2019-06-07T20:31:38.674Z,96258.96
2019-06-07T20:34:07.157Z,96289.05
2019-06-07T20:36:35.740Z,96305.23
2019-06-07T20:39:12.756Z,96291.92
2019-06-07T20:41:36.960Z,96303.95
2019-06-07T20:44:05.904Z,96319.28
2019-06-07T20:46:34.471Z,96329.94
2019-06-07T20:49:04.915Z,96331.89
2019-06-07T20:51:33.191Z,96339.81
2019-06-07T20:54:02.549Z,96347.46
2019-06-07T20:56:31.137Z,96349.91
2019-06-07T20:59:00.470Z,96346.66
2019-06-07T21:01:29.014Z,96350.23
2019-06-07T21:03:58.880Z,96354.30
2019-06-07T21:06:27.454Z,96365.23
2019-06-07T21:08:55.995Z,96367.44
2019-06-07T21:11:24.953Z,96378.39
2019-06-07T21:13:53.521Z,96380.59
2019-06-07T21:16:22.051Z,96390.14
2019-06-07T21:18:50.534Z,96412.80
2019-06-07T21:21:19.154Z,96404.59
2019-06-07T21:23:47.737Z,96413.34
2019-06-07T21:26:16.204Z,96420.98
2019-06-07T21:28:44.725Z,96423.42
2019-06-07T21:31:13.502Z,96427.52
2019-06-07T21:33:41.969Z,96424.23
2019-06-07T21:36:11.781Z,96424.22
2019-06-07T21:38:40.371Z,96430.77
2019-06-07T21:41:09.028Z,96445.21
2019-06-07T21:43:40.438Z,96442.22
2019-06-07T21:46:14.934Z,96443.30
2019-06-07T21:48:39.325Z,96435.91
2019-06-07T21:51:08.645Z,96435.64
2019-06-07T21:53:37.174Z,96439.20
2019-06-07T21:56:07.045Z,96437.25
2019-06-07T21:58:35.575Z,96441.06
2019-06-07T22:01:08.455Z,96463.98
2019-06-07T22:03:37.393Z,96460.98
2019-06-07T22:06:06.307Z,96477.09
2019-06-07T22:08:36.139Z,96475.70
2019-06-07T22:11:06.056Z,96481.17
2019-06-07T22:13:34.705Z,96487.74
2019-06-07T22:16:04.039Z,96486.63
2019-06-07T22:18:32.622Z,96491.00
2019-06-07T22:21:01.142Z,96486.87
2019-06-07T22:23:29.595Z,96477.56
2019-06-07T22:25:58.077Z,96479.20
2019-06-07T22:28:28.216Z,96491.16
2019-06-07T22:30:56.735Z,96496.86
2019-06-07T22:33:25.243Z,96504.45
2019-06-07T22:35:53.900Z,96508.48
2019-06-07T22:38:22.410Z,96520.16
2019-06-07T22:40:50.929Z,96526.91
2019-06-07T22:43:19.469Z,96536.65
2019-06-07T22:45:48.028Z,96524.16
2019-06-07T22:48:17.555Z,96513.28
2019-06-07T22:50:46.124Z,96530.38
2019-06-07T22:53:15.549Z,96524.03
2019-06-07T22:55:46.330Z,96517.16
2019-06-07T22:58:15.974Z,96508.14
2019-06-07T23:00:44.683Z,96513.84
2019-06-07T23:03:14.897Z,96526.33
2019-06-07T23:05:45.273Z,96532.00
2019-06-07T23:08:14.913Z,96535.20
2019-06-07T23:10:45.257Z,96541.47
2019-06-07T23:14:09.140Z,96537.88
2019-06-07T23:16:54.366Z,96547.85
2019-06-07T23:19:07.954Z,96550.83
2019-06-07T23:21:36.472Z,96562.43
2019-06-07T23:24:05.052Z,96553.97
2019-06-07T23:26:33.636Z,96555.87
2019-06-07T23:29:02.225Z,96557.16
2019-06-07T23:32:24.491Z,96559.06
2019-06-07T23:34:52.991Z,96571.55
2019-06-07T23:37:21.494Z,96560.05
2019-06-07T23:39:49.980Z,96571.19
2019-06-07T23:42:19.711Z,96573.58
2019-06-07T23:44:48.251Z,96581.49
2019-06-07T23:47:17.670Z,96584.17
2019-06-07T23:49:46.935Z,96587.69
2019-06-07T23:52:15.610Z,96585.23
2019-06-07T23:54:44.086Z,96589.66
2019-06-07T23:57:13.767Z,96586.44
2019-06-07T23:59:42.456Z,96594.60
